Terminal Aerodrome Forecast
Issued by NWS Charleston, WV

Current Version | Previous Version | Text Only | Print | Product List | Glossary Off
Versions: 1 2 3 4 5 6 7 8 9 10 11 12 13 14 15 16 17 18 19 20 21 22 23 24 25 26 27 28 29 30 31 32 33

000
FTUS41 KRLX 211722
TAFCRW
TAF
KCRW 211722Z 2118/2218 29005KT P6SM BKN004 OVC010
     FM212100 31006KT P6SM BKN015
     FM212300 31006KT P6SM BKN025
     FM220300 00000KT P6SM BKN025
     FM220500 VRB03KT P6SM SCT045
     FM220900 00000KT P6SM FEW150
     FM221300 25006KT P6SM FEW250=

USA.gov is the U.S. government's official web portal to all federal, state and local government web resources and services.